sensor_id;sensor_type;location;lat;lon;timestamp;P1;durP1;ratioP1;P2;durP2;ratioP2
73452;SDS011;61687;56.232;43.854;2023-04-03T00:01:32;62.60;;;26.92;;
73452;SDS011;61687;56.232;43.854;2023-04-03T00:04:05;59.25;;;24.52;;
73452;SDS011;61687;56.232;43.854;2023-04-03T00:06:31;60.97;;;26.55;;
73452;SDS011;61687;56.232;43.854;2023-04-03T00:08:57;59.90;;;25.73;;
73452;SDS011;61687;56.232;43.854;2023-04-03T00:11:23;59.70;;;25.42;;
73452;SDS011;61687;56.232;43.854;2023-04-03T00:13:50;61.97;;;26.45;;
73452;SDS011;61687;56.232;43.854;2023-04-03T00:16:16;68.63;;;28.95;;
73452;SDS011;61687;56.232;43.854;2023-04-03T00:18:42;60.72;;;26.90;;
73452;SDS011;61687;56.232;43.854;2023-04-03T00:21:09;61.33;;;25.43;;
73452;SDS011;61687;56.232;43.854;2023-04-03T00:23:37;61.72;;;27.45;;
73452;SDS011;61687;56.232;43.854;2023-04-03T00:26:03;75.00;;;28.45;;
73452;SDS011;61687;56.232;43.854;2023-04-03T00:28:29;60.08;;;26.85;;
73452;SDS011;61687;56.232;43.854;2023-04-03T00:30:55;65.27;;;25.73;;
73452;SDS011;61687;56.232;43.854;2023-04-03T00:33:21;60.88;;;26.83;;
73452;SDS011;61687;56.232;43.854;2023-04-03T00:35:48;65.20;;;28.45;;
73452;SDS011;61687;56.232;43.854;2023-04-03T00:38:14;64.72;;;26.52;;
73452;SDS011;61687;56.232;43.854;2023-04-03T00:40:43;65.38;;;27.08;;
73452;SDS011;61687;56.232;43.854;2023-04-03T00:43:12;67.67;;;27.03;;
73452;SDS011;61687;56.232;43.854;2023-04-03T00:45:42;59.42;;;25.13;;
73452;SDS011;61687;56.232;43.854;2023-04-03T00:48:11;61.03;;;28.25;;
73452;SDS011;61687;56.232;43.854;2023-04-03T00:50:41;64.55;;;26.63;;
73452;SDS011;61687;56.232;43.854;2023-04-03T00:53:10;62.55;;;29.20;;
73452;SDS011;61687;56.232;43.854;2023-04-03T00:55:39;70.57;;;29.27;;
73452;SDS011;61687;56.232;43.854;2023-04-03T00:58:08;68.28;;;27.92;;
73452;SDS011;61687;56.232;43.854;2023-04-03T01:00:37;66.68;;;27.85;;
73452;SDS011;61687;56.232;43.854;2023-04-03T01:03:05;69.30;;;28.60;;
73452;SDS011;61687;56.232;43.854;2023-04-03T01:05:32;65.82;;;30.00;;
73452;SDS011;61687;56.232;43.854;2023-04-03T01:07:58;65.50;;;27.90;;
73452;SDS011;61687;56.232;43.854;2023-04-03T01:10:25;61.33;;;27.50;;
73452;SDS011;61687;56.232;43.854;2023-04-03T01:12:51;78.15;;;30.75;;
73452;SDS011;61687;56.232;43.854;2023-04-03T01:15:22;70.05;;;28.50;;
73452;SDS011;61687;56.232;43.854;2023-04-03T01:17:54;70.90;;;27.95;;
73452;SDS011;61687;56.232;43.854;2023-04-03T01:25:42;74.40;;;31.23;;
73452;SDS011;61687;56.232;43.854;2023-04-03T01:28:12;65.22;;;28.77;;
73452;SDS011;61687;56.232;43.854;2023-04-03T01:30:50;74.10;;;29.17;;
73452;SDS011;61687;56.232;43.854;2023-04-03T01:33:33;67.73;;;29.83;;
73452;SDS011;61687;56.232;43.854;2023-04-03T01:35:59;65.32;;;29.85;;
73452;SDS011;61687;56.232;43.854;2023-04-03T01:38:26;67.60;;;30.08;;
73452;SDS011;61687;56.232;43.854;2023-04-03T01:40:52;67.10;;;28.48;;
73452;SDS011;61687;56.232;43.854;2023-04-03T01:43:18;76.95;;;33.58;;
73452;SDS011;61687;56.232;43.854;2023-04-03T01:45:45;80.73;;;32.33;;
73452;SDS011;61687;56.232;43.854;2023-04-03T01:48:12;79.13;;;31.65;;
73452;SDS011;61687;56.232;43.854;2023-04-03T01:50:39;75.78;;;31.13;;
73452;SDS011;61687;56.232;43.854;2023-04-03T01:53:05;74.65;;;29.90;;
73452;SDS011;61687;56.232;43.854;2023-04-03T01:55:31;72.13;;;30.55;;
73452;SDS011;61687;56.232;43.854;2023-04-03T01:57:57;72.22;;;31.30;;
73452;SDS011;61687;56.232;43.854;2023-04-03T02:00:23;72.55;;;30.95;;
73452;SDS011;61687;56.232;43.854;2023-04-03T02:02:49;68.88;;;29.35;;
73452;SDS011;61687;56.232;43.854;2023-04-03T02:05:15;72.88;;;31.00;;
73452;SDS011;61687;56.232;43.854;2023-04-03T02:07:41;75.23;;;30.77;;
73452;SDS011;61687;56.232;43.854;2023-04-03T02:10:07;78.85;;;30.38;;
73452;SDS011;61687;56.232;43.854;2023-04-03T02:12:34;88.40;;;35.17;;
73452;SDS011;61687;56.232;43.854;2023-04-03T02:14:59;89.00;;;34.90;;
73452;SDS011;61687;56.232;43.854;2023-04-03T02:17:26;87.17;;;34.00;;
73452;SDS011;61687;56.232;43.854;2023-04-03T02:19:54;82.20;;;33.75;;
73452;SDS011;61687;56.232;43.854;2023-04-03T02:22:20;94.35;;;35.50;;
73452;SDS011;61687;56.232;43.854;2023-04-03T02:24:46;81.90;;;32.38;;
73452;SDS011;61687;56.232;43.854;2023-04-03T02:27:11;85.30;;;31.97;;
73452;SDS011;61687;56.232;43.854;2023-04-03T02:29:37;85.57;;;31.65;;
73452;SDS011;61687;56.232;43.854;2023-04-03T02:32:04;77.30;;;31.77;;
73452;SDS011;61687;56.232;43.854;2023-04-03T02:34:31;83.25;;;32.05;;
73452;SDS011;61687;56.232;43.854;2023-04-03T02:36:58;73.30;;;30.48;;
73452;SDS011;61687;56.232;43.854;2023-04-03T02:39:24;79.70;;;32.42;;
73452;SDS011;61687;56.232;43.854;2023-04-03T02:41:51;84.40;;;32.75;;
73452;SDS011;61687;56.232;43.854;2023-04-03T02:44:22;82.95;;;34.40;;
73452;SDS011;61687;56.232;43.854;2023-04-03T02:46:49;83.70;;;33.87;;
73452;SDS011;61687;56.232;43.854;2023-04-03T02:49:16;85.78;;;34.45;;
73452;SDS011;61687;56.232;43.854;2023-04-03T02:51:42;75.70;;;31.73;;
73452;SDS011;61687;56.232;43.854;2023-04-03T02:54:08;76.53;;;32.03;;
73452;SDS011;61687;56.232;43.854;2023-04-03T02:56:38;74.43;;;32.40;;
73452;SDS011;61687;56.232;43.854;2023-04-03T02:59:04;86.70;;;34.00;;
73452;SDS011;61687;56.232;43.854;2023-04-03T03:01:32;81.38;;;33.97;;
73452;SDS011;61687;56.232;43.854;2023-04-03T03:03:59;76.50;;;34.00;;
73452;SDS011;61687;56.232;43.854;2023-04-03T03:06:26;76.38;;;31.83;;
73452;SDS011;61687;56.232;43.854;2023-04-03T03:08:52;85.78;;;33.03;;
73452;SDS011;61687;56.232;43.854;2023-04-03T03:11:19;83.27;;;33.17;;
73452;SDS011;61687;56.232;43.854;2023-04-03T03:13:45;75.13;;;31.38;;
73452;SDS011;61687;56.232;43.854;2023-04-03T03:16:11;74.57;;;31.58;;
73452;SDS011;61687;56.232;43.854;2023-04-03T03:18:37;82.28;;;32.97;;
73452;SDS011;61687;56.232;43.854;2023-04-03T03:21:04;72.63;;;31.93;;
73452;SDS011;61687;56.232;43.854;2023-04-03T03:23:31;70.60;;;31.25;;
73452;SDS011;61687;56.232;43.854;2023-04-03T03:25:58;77.72;;;32.72;;
73452;SDS011;61687;56.232;43.854;2023-04-03T03:28:26;77.97;;;32.13;;
73452;SDS011;61687;56.232;43.854;2023-04-03T03:30:52;82.35;;;33.85;;
73452;SDS011;61687;56.232;43.854;2023-04-03T03:33:19;81.63;;;32.33;;
73452;SDS011;61687;56.232;43.854;2023-04-03T03:35:45;89.30;;;34.10;;
73452;SDS011;61687;56.232;43.854;2023-04-03T03:38:11;93.90;;;39.63;;
73452;SDS011;61687;56.232;43.854;2023-04-03T03:40:38;78.75;;;32.17;;
73452;SDS011;61687;56.232;43.854;2023-04-03T03:43:04;79.63;;;33.92;;
73452;SDS011;61687;56.232;43.854;2023-04-03T03:45:31;76.97;;;33.10;;
73452;SDS011;61687;56.232;43.854;2023-04-03T03:47:57;90.38;;;34.90;;
73452;SDS011;61687;56.232;43.854;2023-04-03T03:50:23;77.70;;;32.92;;
73452;SDS011;61687;56.232;43.854;2023-04-03T03:52:49;91.03;;;33.78;;
73452;SDS011;61687;56.232;43.854;2023-04-03T03:55:16;79.30;;;34.00;;
73452;SDS011;61687;56.232;43.854;2023-04-03T03:57:43;85.03;;;35.97;;
73452;SDS011;61687;56.232;43.854;2023-04-03T04:00:10;83.15;;;34.65;;
73452;SDS011;61687;56.232;43.854;2023-04-03T04:02:44;85.65;;;37.25;;
73452;SDS011;61687;56.232;43.854;2023-04-03T04:05:14;83.38;;;34.80;;
73452;SDS011;61687;56.232;43.854;2023-04-03T04:07:40;94.85;;;37.45;;
73452;SDS011;61687;56.232;43.854;2023-04-03T04:10:06;121.33;;;43.40;;
73452;SDS011;61687;56.232;43.854;2023-04-03T04:12:33;114.28;;;44.28;;
73452;SDS011;61687;56.232;43.854;2023-04-03T04:15:01;104.32;;;40.80;;
73452;SDS011;61687;56.232;43.854;2023-04-03T04:17:29;106.43;;;41.35;;
73452;SDS011;61687;56.232;43.854;2023-04-03T04:19:56;102.38;;;41.28;;
73452;SDS011;61687;56.232;43.854;2023-04-03T04:22:22;108.13;;;41.87;;
73452;SDS011;61687;56.232;43.854;2023-04-03T04:24:48;101.57;;;41.20;;
73452;SDS011;61687;56.232;43.854;2023-04-03T04:27:13;104.38;;;41.80;;
73452;SDS011;61687;56.232;43.854;2023-04-03T04:29:41;108.97;;;42.60;;
73452;SDS011;61687;56.232;43.854;2023-04-03T04:32:08;105.90;;;42.97;;
73452;SDS011;61687;56.232;43.854;2023-04-03T04:34:34;108.18;;;43.42;;
73452;SDS011;61687;56.232;43.854;2023-04-03T04:37:01;104.20;;;44.40;;
73452;SDS011;61687;56.232;43.854;2023-04-03T04:39:27;94.88;;;42.15;;
73452;SDS011;61687;56.232;43.854;2023-04-03T04:41:55;93.60;;;40.65;;
73452;SDS011;61687;56.232;43.854;2023-04-03T04:44:22;90.10;;;39.50;;
73452;SDS011;61687;56.232;43.854;2023-04-03T04:46:48;86.45;;;39.17;;
73452;SDS011;61687;56.232;43.854;2023-04-03T04:49:14;95.55;;;39.05;;
73452;SDS011;61687;56.232;43.854;2023-04-03T04:51:40;90.75;;;38.85;;
73452;SDS011;61687;56.232;43.854;2023-04-03T04:54:07;88.10;;;38.33;;
73452;SDS011;61687;56.232;43.854;2023-04-03T04:56:33;96.90;;;39.00;;
73452;SDS011;61687;56.232;43.854;2023-04-03T04:58:59;79.20;;;37.80;;
73452;SDS011;61687;56.232;43.854;2023-04-03T05:01:26;87.07;;;39.45;;
73452;SDS011;61687;56.232;43.854;2023-04-03T05:04:06;94.00;;;40.47;;
73452;SDS011;61687;56.232;43.854;2023-04-03T05:06:33;89.13;;;38.35;;
73452;SDS011;61687;56.232;43.854;2023-04-03T05:09:02;86.18;;;40.55;;
73452;SDS011;61687;56.232;43.854;2023-04-03T05:11:30;94.05;;;37.92;;
73452;SDS011;61687;56.232;43.854;2023-04-03T05:13:56;92.15;;;40.63;;
73452;SDS011;61687;56.232;43.854;2023-04-03T05:16:23;92.87;;;37.73;;
73452;SDS011;61687;56.232;43.854;2023-04-03T05:18:50;85.03;;;39.10;;
73452;SDS011;61687;56.232;43.854;2023-04-03T05:21:19;84.72;;;40.65;;
73452;SDS011;61687;56.232;43.854;2023-04-03T05:23:47;92.28;;;39.40;;
73452;SDS011;61687;56.232;43.854;2023-04-03T05:26:13;92.18;;;38.78;;
73452;SDS011;61687;56.232;43.854;2023-04-03T05:28:39;86.27;;;38.27;;
73452;SDS011;61687;56.232;43.854;2023-04-03T05:31:06;78.93;;;35.80;;
73452;SDS011;61687;56.232;43.854;2023-04-03T05:33:35;71.68;;;34.05;;
73452;SDS011;61687;56.232;43.854;2023-04-03T05:36:05;68.25;;;32.92;;
73452;SDS011;61687;56.232;43.854;2023-04-03T05:38:35;84.25;;;37.78;;
73452;SDS011;61687;56.232;43.854;2023-04-03T05:41:01;86.87;;;37.03;;
73452;SDS011;61687;56.232;43.854;2023-04-03T05:43:27;79.45;;;37.63;;
73452;SDS011;61687;56.232;43.854;2023-04-03T05:45:54;78.35;;;36.28;;
73452;SDS011;61687;56.232;43.854;2023-04-03T05:48:22;73.60;;;35.22;;
73452;SDS011;61687;56.232;43.854;2023-04-03T05:50:48;71.53;;;32.80;;
73452;SDS011;61687;56.232;43.854;2023-04-03T05:53:25;67.40;;;33.47;;
73452;SDS011;61687;56.232;43.854;2023-04-03T05:55:57;78.28;;;34.92;;
73452;SDS011;61687;56.232;43.854;2023-04-03T05:58:24;82.57;;;36.47;;
73452;SDS011;61687;56.232;43.854;2023-04-03T06:00:51;78.97;;;36.75;;
73452;SDS011;61687;56.232;43.854;2023-04-03T06:03:17;75.47;;;37.23;;
73452;SDS011;61687;56.232;43.854;2023-04-03T06:05:43;73.17;;;34.27;;
73452;SDS011;61687;56.232;43.854;2023-04-03T06:08:10;77.88;;;36.80;;
73452;SDS011;61687;56.232;43.854;2023-04-03T06:10:36;77.20;;;35.67;;
73452;SDS011;61687;56.232;43.854;2023-04-03T06:13:02;83.60;;;38.50;;
73452;SDS011;61687;56.232;43.854;2023-04-03T06:15:28;105.60;;;47.30;;
73452;SDS011;61687;56.232;43.854;2023-04-03T06:17:54;123.55;;;50.90;;
73452;SDS011;61687;56.232;43.854;2023-04-03T06:20:21;122.18;;;52.38;;
73452;SDS011;61687;56.232;43.854;2023-04-03T06:22:48;95.65;;;43.92;;
73452;SDS011;61687;56.232;43.854;2023-04-03T06:25:14;119.53;;;45.63;;
73452;SDS011;61687;56.232;43.854;2023-04-03T06:27:41;88.38;;;36.85;;
73452;SDS011;61687;56.232;43.854;2023-04-03T06:30:07;71.55;;;31.13;;
73452;SDS011;61687;56.232;43.854;2023-04-03T06:32:33;61.08;;;28.23;;
73452;SDS011;61687;56.232;43.854;2023-04-03T06:34:59;62.47;;;27.03;;
73452;SDS011;61687;56.232;43.854;2023-04-03T06:37:25;54.97;;;26.52;;
73452;SDS011;61687;56.232;43.854;2023-04-03T06:39:53;49.35;;;23.42;;
73452;SDS011;61687;56.232;43.854;2023-04-03T06:42:19;42.55;;;20.15;;
73452;SDS011;61687;56.232;43.854;2023-04-03T06:45:06;43.97;;;21.23;;
73452;SDS011;61687;56.232;43.854;2023-04-03T06:47:33;40.72;;;20.35;;
73452;SDS011;61687;56.232;43.854;2023-04-03T06:49:58;46.33;;;21.27;;
73452;SDS011;61687;56.232;43.854;2023-04-03T06:52:25;52.50;;;19.75;;
73452;SDS011;61687;56.232;43.854;2023-04-03T06:54:51;48.13;;;17.90;;
73452;SDS011;61687;56.232;43.854;2023-04-03T06:57:22;40.75;;;18.58;;
73452;SDS011;61687;56.232;43.854;2023-04-03T06:59:48;39.65;;;19.88;;
73452;SDS011;61687;56.232;43.854;2023-04-03T07:02:16;46.88;;;20.45;;
73452;SDS011;61687;56.232;43.854;2023-04-03T07:04:42;47.25;;;22.10;;
73452;SDS011;61687;56.232;43.854;2023-04-03T07:07:08;37.23;;;19.57;;
73452;SDS011;61687;56.232;43.854;2023-04-03T07:09:34;50.80;;;19.55;;
73452;SDS011;61687;56.232;43.854;2023-04-03T07:12:00;39.40;;;17.20;;
73452;SDS011;61687;56.232;43.854;2023-04-03T07:14:26;35.90;;;16.37;;
73452;SDS011;61687;56.232;43.854;2023-04-03T07:16:51;27.98;;;14.13;;
73452;SDS011;61687;56.232;43.854;2023-04-03T07:19:17;31.67;;;14.82;;
73452;SDS011;61687;56.232;43.854;2023-04-03T07:21:44;24.77;;;13.43;;
73452;SDS011;61687;56.232;43.854;2023-04-03T07:24:10;32.35;;;13.32;;
73452;SDS011;61687;56.232;43.854;2023-04-03T07:26:37;34.47;;;14.25;;
73452;SDS011;61687;56.232;43.854;2023-04-03T07:29:02;32.05;;;13.30;;
73452;SDS011;61687;56.232;43.854;2023-04-03T07:31:28;35.03;;;13.33;;
73452;SDS011;61687;56.232;43.854;2023-04-03T07:33:54;25.95;;;12.00;;
73452;SDS011;61687;56.232;43.854;2023-04-03T07:36:21;26.45;;;12.07;;
73452;SDS011;61687;56.232;43.854;2023-04-03T07:38:48;26.33;;;11.52;;
73452;SDS011;61687;56.232;43.854;2023-04-03T07:41:15;27.97;;;11.73;;
73452;SDS011;61687;56.232;43.854;2023-04-03T07:43:43;25.50;;;12.15;;
73452;SDS011;61687;56.232;43.854;2023-04-03T07:46:10;25.70;;;10.80;;
73452;SDS011;61687;56.232;43.854;2023-04-03T07:48:36;23.98;;;10.77;;
73452;SDS011;61687;56.232;43.854;2023-04-03T07:51:03;17.77;;;9.77;;
73452;SDS011;61687;56.232;43.854;2023-04-03T07:53:29;21.85;;;10.35;;
73452;SDS011;61687;56.232;43.854;2023-04-03T07:55:56;25.52;;;11.43;;
73452;SDS011;61687;56.232;43.854;2023-04-03T07:58:23;17.80;;;9.80;;
73452;SDS011;61687;56.232;43.854;2023-04-03T08:00:50;23.17;;;11.52;;
73452;SDS011;61687;56.232;43.854;2023-04-03T08:03:17;24.57;;;9.73;;
73452;SDS011;61687;56.232;43.854;2023-04-03T08:05:43;17.85;;;9.20;;
73452;SDS011;61687;56.232;43.854;2023-04-03T08:08:12;16.50;;;8.50;;
73452;SDS011;61687;56.232;43.854;2023-04-03T08:10:39;12.85;;;8.75;;
73452;SDS011;61687;56.232;43.854;2023-04-03T08:13:06;14.02;;;8.02;;
73452;SDS011;61687;56.232;43.854;2023-04-03T08:15:33;13.80;;;7.80;;
73452;SDS011;61687;56.232;43.854;2023-04-03T08:17:59;17.10;;;7.97;;
73452;SDS011;61687;56.232;43.854;2023-04-03T08:20:26;16.88;;;7.50;;
73452;SDS011;61687;56.232;43.854;2023-04-03T08:22:53;17.65;;;7.88;;
73452;SDS011;61687;56.232;43.854;2023-04-03T08:25:19;13.97;;;7.30;;
73452;SDS011;61687;56.232;43.854;2023-04-03T08:27:45;14.05;;;7.22;;
73452;SDS011;61687;56.232;43.854;2023-04-03T08:30:11;15.35;;;8.40;;
73452;SDS011;61687;56.232;43.854;2023-04-03T08:32:38;17.65;;;8.38;;
73452;SDS011;61687;56.232;43.854;2023-04-03T08:35:04;14.80;;;8.13;;
73452;SDS011;61687;56.232;43.854;2023-04-03T08:37:30;15.47;;;7.57;;
73452;SDS011;61687;56.232;43.854;2023-04-03T08:40:00;14.90;;;7.88;;
73452;SDS011;61687;56.232;43.854;2023-04-03T08:42:41;13.93;;;7.65;;
73452;SDS011;61687;56.232;43.854;2023-04-03T08:45:16;16.10;;;7.30;;
73452;SDS011;61687;56.232;43.854;2023-04-03T08:48:04;16.07;;;6.13;;
73452;SDS011;61687;56.232;43.854;2023-04-03T08:50:37;20.52;;;7.18;;
73452;SDS011;61687;56.232;43.854;2023-04-03T08:53:06;15.82;;;6.82;;
73452;SDS011;61687;56.232;43.854;2023-04-03T08:55:46;13.70;;;6.50;;
73452;SDS011;61687;56.232;43.854;2023-04-03T08:58:18;16.65;;;6.97;;
73452;SDS011;61687;56.232;43.854;2023-04-03T09:00:50;11.63;;;6.27;;
73452;SDS011;61687;56.232;43.854;2023-04-03T09:03:20;18.00;;;7.22;;
73452;SDS011;61687;56.232;43.854;2023-04-03T09:08:53;16.08;;;6.90;;
73452;SDS011;61687;56.232;43.854;2023-04-03T09:17:45;14.18;;;6.97;;
73452;SDS011;61687;56.232;43.854;2023-04-03T09:20:31;14.20;;;6.55;;
73452;SDS011;61687;56.232;43.854;2023-04-03T09:23:01;16.42;;;7.40;;
73452;SDS011;61687;56.232;43.854;2023-04-03T09:25:40;19.00;;;7.57;;
73452;SDS011;61687;56.232;43.854;2023-04-03T09:28:06;17.40;;;7.00;;
73452;SDS011;61687;56.232;43.854;2023-04-03T09:30:35;16.02;;;7.47;;
73452;SDS011;61687;56.232;43.854;2023-04-03T09:33:01;13.73;;;6.47;;
73452;SDS011;61687;56.232;43.854;2023-04-03T09:35:34;13.05;;;6.70;;
73452;SDS011;61687;56.232;43.854;2023-04-03T09:40:37;14.73;;;7.65;;
73452;SDS011;61687;56.232;43.854;2023-04-03T09:46:17;11.52;;;6.47;;
73452;SDS011;61687;56.232;43.854;2023-04-03T09:48:58;12.02;;;5.90;;
73452;SDS011;61687;56.232;43.854;2023-04-03T09:51:27;14.40;;;6.20;;
73452;SDS011;61687;56.232;43.854;2023-04-03T09:53:53;11.80;;;5.93;;
73452;SDS011;61687;56.232;43.854;2023-04-03T09:56:22;15.68;;;6.43;;
73452;SDS011;61687;56.232;43.854;2023-04-03T09:58:49;12.98;;;6.80;;
73452;SDS011;61687;56.232;43.854;2023-04-03T10:01:36;15.38;;;6.72;;
73452;SDS011;61687;56.232;43.854;2023-04-03T10:06:38;14.95;;;6.20;;
73452;SDS011;61687;56.232;43.854;2023-04-03T10:12:00;14.88;;;7.20;;
73452;SDS011;61687;56.232;43.854;2023-04-03T10:14:30;16.30;;;7.38;;
73452;SDS011;61687;56.232;43.854;2023-04-03T10:19:47;12.50;;;6.15;;
73452;SDS011;61687;56.232;43.854;2023-04-03T10:27:58;16.55;;;5.68;;
73452;SDS011;61687;56.232;43.854;2023-04-03T10:33:19;10.32;;;6.07;;
73452;SDS011;61687;56.232;43.854;2023-04-03T10:38:55;15.65;;;6.22;;
73452;SDS011;61687;56.232;43.854;2023-04-03T10:41:26;12.18;;;5.85;;
73452;SDS011;61687;56.232;43.854;2023-04-03T10:44:14;12.30;;;6.10;;
73452;SDS011;61687;56.232;43.854;2023-04-03T10:49:25;14.43;;;6.80;;
73452;SDS011;61687;56.232;43.854;2023-04-03T10:54:36;19.50;;;9.63;;
73452;SDS011;61687;56.232;43.854;2023-04-03T10:57:22;19.87;;;7.83;;
73452;SDS011;61687;56.232;43.854;2023-04-03T10:59:53;17.33;;;6.50;;
73452;SDS011;61687;56.232;43.854;2023-04-03T11:02:51;15.27;;;7.25;;
73452;SDS011;61687;56.232;43.854;2023-04-03T11:08:03;16.25;;;7.13;;
73452;SDS011;61687;56.232;43.854;2023-04-03T11:13:06;14.75;;;5.95;;
73452;SDS011;61687;56.232;43.854;2023-04-03T11:15:39;18.70;;;6.60;;
73452;SDS011;61687;56.232;43.854;2023-04-03T11:18:09;33.45;;;6.82;;
73452;SDS011;61687;56.232;43.854;2023-04-03T11:20:39;14.35;;;6.43;;
73452;SDS011;61687;56.232;43.854;2023-04-03T11:25:38;14.13;;;6.60;;
73452;SDS011;61687;56.232;43.854;2023-04-03T11:28:14;15.50;;;6.18;;
73452;SDS011;61687;56.232;43.854;2023-04-03T11:33:25;9.32;;;5.88;;
73452;SDS011;61687;56.232;43.854;2023-04-03T11:36:12;20.63;;;4.77;;
73452;SDS011;61687;56.232;43.854;2023-04-03T11:38:45;18.60;;;6.13;;
73452;SDS011;61687;56.232;43.854;2023-04-03T11:41:14;20.67;;;6.35;;
73452;SDS011;61687;56.232;43.854;2023-04-03T11:43:42;13.18;;;5.35;;
73452;SDS011;61687;56.232;43.854;2023-04-03T11:46:48;23.05;;;6.07;;
73452;SDS011;61687;56.232;43.854;2023-04-03T12:05:53;14.32;;;5.70;;
73452;SDS011;61687;56.232;43.854;2023-04-03T12:13:36;18.58;;;5.78;;
73452;SDS011;61687;56.232;43.854;2023-04-03T12:16:03;10.27;;;5.10;;
73452;SDS011;61687;56.232;43.854;2023-04-03T12:18:41;21.65;;;5.60;;
73452;SDS011;61687;56.232;43.854;2023-04-03T12:21:08;12.90;;;5.43;;
73452;SDS011;61687;56.232;43.854;2023-04-03T12:23:36;15.23;;;5.28;;
73452;SDS011;61687;56.232;43.854;2023-04-03T12:26:22;18.23;;;5.10;;
73452;SDS011;61687;56.232;43.854;2023-04-03T12:28:52;10.90;;;5.20;;
73452;SDS011;61687;56.232;43.854;2023-04-03T12:31:19;11.32;;;5.40;;
73452;SDS011;61687;56.232;43.854;2023-04-03T12:36:48;17.70;;;5.10;;
73452;SDS011;61687;56.232;43.854;2023-04-03T12:40:09;15.63;;;5.80;;
73452;SDS011;61687;56.232;43.854;2023-04-03T12:45:20;11.00;;;5.13;;
73452;SDS011;61687;56.232;43.854;2023-04-03T12:47:50;13.57;;;5.00;;
73452;SDS011;61687;56.232;43.854;2023-04-03T12:50:22;11.40;;;4.30;;
73452;SDS011;61687;56.232;43.854;2023-04-03T12:55:39;21.60;;;5.87;;
73452;SDS011;61687;56.232;43.854;2023-04-03T13:01:04;13.43;;;5.40;;
73452;SDS011;61687;56.232;43.854;2023-04-03T13:03:38;13.88;;;4.82;;
73452;SDS011;61687;56.232;43.854;2023-04-03T13:06:05;16.83;;;5.83;;
73452;SDS011;61687;56.232;43.854;2023-04-03T13:08:32;20.77;;;7.13;;
73452;SDS011;61687;56.232;43.854;2023-04-03T13:11:00;20.20;;;8.23;;
73452;SDS011;61687;56.232;43.854;2023-04-03T13:13:28;27.08;;;9.25;;
73452;SDS011;61687;56.232;43.854;2023-04-03T13:15:54;20.60;;;7.07;;
73452;SDS011;61687;56.232;43.854;2023-04-03T13:18:31;20.23;;;6.30;;
73452;SDS011;61687;56.232;43.854;2023-04-03T13:21:01;11.15;;;5.88;;
73452;SDS011;61687;56.232;43.854;2023-04-03T13:23:28;10.18;;;5.32;;
73452;SDS011;61687;56.232;43.854;2023-04-03T13:25:56;15.88;;;5.53;;
73452;SDS011;61687;56.232;43.854;2023-04-03T13:28:26;11.17;;;5.07;;
73452;SDS011;61687;56.232;43.854;2023-04-03T13:33:25;17.50;;;6.70;;
73452;SDS011;61687;56.232;43.854;2023-04-03T13:36:36;17.23;;;5.55;;
73452;SDS011;61687;56.232;43.854;2023-04-03T13:41:50;15.30;;;5.60;;
73452;SDS011;61687;56.232;43.854;2023-04-03T13:46:56;15.73;;;4.40;;
73452;SDS011;61687;56.232;43.854;2023-04-03T13:49:40;8.77;;;4.45;;
73452;SDS011;61687;56.232;43.854;2023-04-03T13:52:38;11.68;;;4.65;;
73452;SDS011;61687;56.232;43.854;2023-04-03T13:55:26;9.47;;;4.30;;
73452;SDS011;61687;56.232;43.854;2023-04-03T14:03:16;16.40;;;9.65;;
73452;SDS011;61687;56.232;43.854;2023-04-03T14:05:44;26.25;;;14.40;;
73452;SDS011;61687;56.232;43.854;2023-04-03T14:08:10;26.07;;;13.17;;
73452;SDS011;61687;56.232;43.854;2023-04-03T14:10:37;16.20;;;7.07;;
73452;SDS011;61687;56.232;43.854;2023-04-03T14:13:03;15.68;;;7.70;;
73452;SDS011;61687;56.232;43.854;2023-04-03T14:15:30;11.43;;;5.72;;
73452;SDS011;61687;56.232;43.854;2023-04-03T14:17:56;16.20;;;5.20;;
73452;SDS011;61687;56.232;43.854;2023-04-03T14:20:24;15.50;;;5.40;;
73452;SDS011;61687;56.232;43.854;2023-04-03T14:22:53;14.43;;;4.65;;
73452;SDS011;61687;56.232;43.854;2023-04-03T14:25:19;18.85;;;4.57;;
73452;SDS011;61687;56.232;43.854;2023-04-03T14:27:48;22.20;;;5.43;;
73452;SDS011;61687;56.232;43.854;2023-04-03T14:30:17;26.27;;;6.50;;
73452;SDS011;61687;56.232;43.854;2023-04-03T14:32:45;24.95;;;7.97;;
73452;SDS011;61687;56.232;43.854;2023-04-03T14:35:12;18.10;;;7.78;;
73452;SDS011;61687;56.232;43.854;2023-04-03T14:37:39;24.85;;;5.90;;
73452;SDS011;61687;56.232;43.854;2023-04-03T14:40:07;16.38;;;5.75;;
73452;SDS011;61687;56.232;43.854;2023-04-03T14:42:35;14.77;;;5.03;;
73452;SDS011;61687;56.232;43.854;2023-04-03T14:45:04;18.90;;;5.13;;
73452;SDS011;61687;56.232;43.854;2023-04-03T14:47:32;15.95;;;5.40;;
73452;SDS011;61687;56.232;43.854;2023-04-03T14:50:02;25.35;;;5.50;;
73452;SDS011;61687;56.232;43.854;2023-04-03T14:52:31;20.23;;;6.05;;
73452;SDS011;61687;56.232;43.854;2023-04-03T14:55:00;18.47;;;5.57;;
73452;SDS011;61687;56.232;43.854;2023-04-03T14:57:30;27.30;;;6.63;;
73452;SDS011;61687;56.232;43.854;2023-04-03T14:59:57;25.23;;;5.75;;
73452;SDS011;61687;56.232;43.854;2023-04-03T15:02:32;19.85;;;6.18;;
73452;SDS011;61687;56.232;43.854;2023-04-03T15:05:00;32.15;;;5.40;;
73452;SDS011;61687;56.232;43.854;2023-04-03T15:07:30;19.73;;;6.27;;
73452;SDS011;61687;56.232;43.854;2023-04-03T15:10:18;30.90;;;5.88;;
73452;SDS011;61687;56.232;43.854;2023-04-03T15:12:45;37.08;;;5.63;;
73452;SDS011;61687;56.232;43.854;2023-04-03T15:15:13;21.75;;;5.22;;
73452;SDS011;61687;56.232;43.854;2023-04-03T15:17:42;20.38;;;5.60;;
73452;SDS011;61687;56.232;43.854;2023-04-03T15:20:19;18.60;;;5.43;;
73452;SDS011;61687;56.232;43.854;2023-04-03T15:22:47;25.83;;;6.38;;
73452;SDS011;61687;56.232;43.854;2023-04-03T15:25:14;31.27;;;6.53;;
73452;SDS011;61687;56.232;43.854;2023-04-03T15:27:40;39.50;;;7.60;;
73452;SDS011;61687;56.232;43.854;2023-04-03T15:30:06;36.85;;;7.97;;
73452;SDS011;61687;56.232;43.854;2023-04-03T15:32:36;40.53;;;8.10;;
73452;SDS011;61687;56.232;43.854;2023-04-03T15:35:02;34.72;;;6.93;;
73452;SDS011;61687;56.232;43.854;2023-04-03T15:37:28;32.13;;;7.70;;
73452;SDS011;61687;56.232;43.854;2023-04-03T15:39:55;37.70;;;7.90;;
73452;SDS011;61687;56.232;43.854;2023-04-03T15:42:21;24.33;;;7.40;;
73452;SDS011;61687;56.232;43.854;2023-04-03T15:44:47;32.55;;;7.80;;
73452;SDS011;61687;56.232;43.854;2023-04-03T15:47:12;33.25;;;6.82;;
73452;SDS011;61687;56.232;43.854;2023-04-03T15:49:38;51.30;;;8.68;;
73452;SDS011;61687;56.232;43.854;2023-04-03T15:52:04;46.60;;;9.13;;
73452;SDS011;61687;56.232;43.854;2023-04-03T15:54:31;34.85;;;7.85;;
73452;SDS011;61687;56.232;43.854;2023-04-03T15:56:57;36.42;;;7.53;;
73452;SDS011;61687;56.232;43.854;2023-04-03T15:59:23;30.85;;;7.50;;
73452;SDS011;61687;56.232;43.854;2023-04-03T16:01:49;32.50;;;8.20;;
73452;SDS011;61687;56.232;43.854;2023-04-03T16:04:16;33.23;;;7.57;;
73452;SDS011;61687;56.232;43.854;2023-04-03T16:06:43;34.15;;;7.97;;